createdAt,value
2022-12-31T00:01:08.663Z,8.90
2022-12-31T00:03:39.513Z,8.90
2022-12-31T00:06:15.967Z,9.10
2022-12-31T00:08:44.939Z,9.10
2022-12-31T00:11:13.545Z,9.10
2022-12-31T00:13:43.228Z,9.00
2022-12-31T00:16:16.606Z,9.10
2022-12-31T00:18:47.967Z,8.70
2022-12-31T00:21:17.490Z,8.80
2022-12-31T00:23:46.519Z,8.60
2022-12-31T00:26:17.693Z,8.40
2022-12-31T00:28:46.523Z,8.20
2022-12-31T00:31:17.579Z,8.50
2022-12-31T00:33:47.965Z,8.50
2022-12-31T00:36:19.243Z,8.60
2022-12-31T00:38:49.345Z,8.70
2022-12-31T00:41:19.275Z,8.50
2022-12-31T00:43:48.576Z,8.60
2022-12-31T00:46:18.050Z,8.60
2022-12-31T00:48:48.692Z,8.60
2022-12-31T00:51:22.469Z,8.60
2022-12-31T00:53:51.065Z,8.70
2022-12-31T00:56:22.255Z,8.60
2022-12-31T00:58:51.340Z,8.70
2022-12-31T01:01:22.512Z,8.70
2022-12-31T01:03:55.380Z,8.50
2022-12-31T01:06:24.390Z,8.50
2022-12-31T01:08:55.757Z,8.50
2022-12-31T01:11:29.427Z,8.50
2022-12-31T01:13:59.897Z,8.40
2022-12-31T01:16:30.735Z,8.50
2022-12-31T01:19:02.181Z,8.40
2022-12-31T01:21:31.411Z,8.40
2022-12-31T01:24:00.614Z,8.60
2022-12-31T01:26:29.809Z,8.50
2022-12-31T01:28:58.704Z,8.70
2022-12-31T01:31:27.921Z,8.60
2022-12-31T01:33:56.553Z,8.70
2022-12-31T01:36:29.307Z,9.20
2022-12-31T01:38:59.712Z,8.80
2022-12-31T01:41:31.193Z,8.50
2022-12-31T01:44:01.943Z,8.50
2022-12-31T01:46:37.195Z,8.70
2022-12-31T01:49:11.256Z,8.50
2022-12-31T01:51:45.175Z,8.20
2022-12-31T01:54:16.322Z,8.50
2022-12-31T01:56:46.935Z,8.50
2022-12-31T01:59:18.853Z,8.60
2022-12-31T02:01:49.059Z,8.40
2022-12-31T02:04:18.283Z,8.50
2022-12-31T02:06:53.336Z,8.40
2022-12-31T02:09:22.065Z,8.60
2022-12-31T02:11:50.623Z,8.10
2022-12-31T02:14:22.363Z,8.10
2022-12-31T02:16:57.332Z,8.40
2022-12-31T02:19:50.540Z,8.30
2022-12-31T02:22:30.921Z,8.00
2022-12-31T02:25:19.273Z,8.30
2022-12-31T02:27:58.251Z,8.20
2022-12-31T02:30:32.134Z,8.20
2022-12-31T02:33:10.549Z,8.10
2022-12-31T02:35:47.133Z,8.00
2022-12-31T02:38:19.804Z,7.90
2022-12-31T02:40:49.056Z,8.00
2022-12-31T02:43:17.542Z,8.00
2022-12-31T02:45:51.694Z,8.00
2022-12-31T02:48:32.847Z,8.00
2022-12-31T02:51:13.716Z,8.30
2022-12-31T02:54:11.267Z,7.80
2022-12-31T02:56:46.719Z,7.60
2022-12-31T02:59:53.620Z,7.10
2022-12-31T03:02:25.188Z,7.20
2022-12-31T03:04:56.126Z,7.30
2022-12-31T03:07:26.754Z,7.50
2022-12-31T03:09:55.507Z,7.70
2022-12-31T03:12:44.511Z,7.70
2022-12-31T03:15:21.209Z,7.70
2022-12-31T03:17:57.263Z,7.60
2022-12-31T03:20:46.285Z,7.90
2022-12-31T03:23:17.599Z,7.80
2022-12-31T03:25:45.353Z,7.70
2022-12-31T03:28:16.033Z,7.50
2022-12-31T03:30:47.712Z,7.60
2022-12-31T03:33:18.662Z,7.60
2022-12-31T03:35:48.914Z,7.50
2022-12-31T03:38:18.423Z,7.60
2022-12-31T03:40:48.972Z,7.50
2022-12-31T03:43:19.372Z,7.60
2022-12-31T03:45:51.454Z,7.80
2022-12-31T03:48:22.565Z,7.70
2022-12-31T03:50:51.475Z,7.70
2022-12-31T03:53:20.267Z,7.70
2022-12-31T03:55:52.467Z,7.50
2022-12-31T03:58:21.326Z,7.80
2022-12-31T04:00:49.987Z,7.80
2022-12-31T04:03:20.225Z,7.80
2022-12-31T04:05:54.629Z,7.80
2022-12-31T04:08:23.171Z,7.80
2022-12-31T04:10:51.720Z,7.80
2022-12-31T04:13:21.275Z,7.80
2022-12-31T04:15:52.060Z,7.90
2022-12-31T04:18:22.072Z,7.70
2022-12-31T04:20:50.607Z,7.80
2022-12-31T04:23:19.215Z,7.90
2022-12-31T04:25:47.799Z,7.80
2022-12-31T04:28:16.344Z,7.70
2022-12-31T04:30:45.373Z,7.50
2022-12-31T04:33:13.896Z,7.80
2022-12-31T04:35:43.756Z,7.70
2022-12-31T04:38:12.314Z,7.80
2022-12-31T04:41:00.878Z,7.80
2022-12-31T04:43:29.494Z,7.90
2022-12-31T04:45:58.044Z,8.00
2022-12-31T04:48:26.600Z,8.00
2022-12-31T04:50:56.578Z,8.10
2022-12-31T04:53:25.155Z,8.00
2022-12-31T04:55:53.841Z,7.80
2022-12-31T04:58:22.460Z,7.80
2022-12-31T05:00:54.757Z,8.00
2022-12-31T05:03:26.330Z,7.90
2022-12-31T05:06:02.871Z,8.00
2022-12-31T05:08:31.885Z,7.90
2022-12-31T05:11:00.474Z,7.80
2022-12-31T05:13:33.145Z,7.70
2022-12-31T05:16:02.418Z,7.70
2022-12-31T05:18:31.716Z,8.60
2022-12-31T05:21:02.022Z,7.40
2022-12-31T05:23:30.784Z,7.50
2022-12-31T05:26:00.537Z,7.60
2022-12-31T05:28:29.379Z,7.40
2022-12-31T05:30:57.989Z,7.50
2022-12-31T05:33:26.502Z,7.50
2022-12-31T05:35:55.033Z,7.40
2022-12-31T05:38:25.212Z,7.30
2022-12-31T05:41:01.400Z,7.50
2022-12-31T05:43:30.058Z,7.60
2022-12-31T05:46:01.179Z,7.70
2022-12-31T05:48:30.449Z,7.70
2022-12-31T05:50:59.155Z,7.90
2022-12-31T05:53:29.105Z,7.80
2022-12-31T05:55:57.718Z,7.60
2022-12-31T05:58:27.500Z,7.70
2022-12-31T06:00:56.111Z,7.80
2022-12-31T06:03:24.724Z,7.60
2022-12-31T06:05:53.321Z,8.00
2022-12-31T06:08:21.791Z,7.70
2022-12-31T06:10:51.734Z,7.60
2022-12-31T06:13:20.245Z,7.60
2022-12-31T06:15:48.756Z,7.60
2022-12-31T06:18:17.305Z,7.70
2022-12-31T06:20:45.838Z,7.80
2022-12-31T06:23:14.416Z,7.60
2022-12-31T06:25:43.002Z,7.70
2022-12-31T06:28:19.826Z,7.70
2022-12-31T06:30:49.163Z,7.70
2022-12-31T06:33:17.711Z,9.50
2022-12-31T06:35:46.175Z,7.60
2022-12-31T06:38:14.673Z,7.70
2022-12-31T06:40:44.573Z,7.60
2022-12-31T06:43:14.474Z,7.80
2022-12-31T06:45:42.949Z,7.70
2022-12-31T06:48:11.507Z,7.60
2022-12-31T06:50:40.356Z,7.80
2022-12-31T06:53:08.952Z,7.70
2022-12-31T06:55:40.632Z,8.00
2022-12-31T06:58:13.066Z,7.60
2022-12-31T07:00:51.785Z,7.70
2022-12-31T07:03:32.194Z,7.80
2022-12-31T07:06:08.025Z,7.90
2022-12-31T07:08:46.322Z,7.90
2022-12-31T07:11:21.983Z,7.70
2022-12-31T07:14:03.422Z,7.70
2022-12-31T07:16:42.808Z,8.00
2022-12-31T07:19:25.913Z,7.80
2022-12-31T07:21:57.132Z,7.80
2022-12-31T07:24:26.163Z,7.40
2022-12-31T07:27:11.363Z,7.40
2022-12-31T07:29:57.932Z,7.60
2022-12-31T07:32:40.477Z,7.40
2022-12-31T07:35:16.297Z,7.20
2022-12-31T07:37:50.663Z,7.20
2022-12-31T07:40:26.023Z,7.50
2022-12-31T07:43:08.603Z,7.60
2022-12-31T07:45:47.143Z,7.60
2022-12-31T07:48:24.464Z,7.60
2022-12-31T07:50:54.943Z,7.80
2022-12-31T07:53:24.554Z,8.00
2022-12-31T07:55:56.691Z,8.00
2022-12-31T07:58:33.557Z,8.10
2022-12-31T08:01:03.086Z,8.10
2022-12-31T08:03:46.477Z,8.30
2022-12-31T08:06:23.633Z,8.20
2022-12-31T08:09:00.118Z,8.10
2022-12-31T08:11:37.047Z,8.30
2022-12-31T08:14:09.883Z,8.30
2022-12-31T08:16:39.042Z,8.20
2022-12-31T08:19:18.360Z,8.10
2022-12-31T08:21:57.768Z,8.20
2022-12-31T08:24:38.063Z,7.90
2022-12-31T08:27:11.493Z,7.90
2022-12-31T08:29:47.501Z,8.00
2022-12-31T08:32:23.046Z,8.30
2022-12-31T08:34:59.608Z,8.40
2022-12-31T08:37:37.060Z,8.60
2022-12-31T08:40:21.592Z,8.60
2022-12-31T08:43:12.777Z,8.90
2022-12-31T08:45:47.766Z,9.00
2022-12-31T08:48:27.607Z,9.00
2022-12-31T08:50:59.362Z,9.30
2022-12-31T08:53:28.508Z,9.70
2022-12-31T08:56:04.144Z,9.60
2022-12-31T08:58:44.625Z,10.00
2022-12-31T09:01:19.166Z,10.10
2022-12-31T09:04:07.413Z,10.00
2022-12-31T09:06:43.898Z,10.00
2022-12-31T09:09:21.863Z,10.20
2022-12-31T09:11:58.544Z,10.20
2022-12-31T09:14:45.218Z,10.40
2022-12-31T09:17:45.630Z,10.50
2022-12-31T09:20:36.303Z,10.40
2022-12-31T09:23:16.179Z,10.50
2022-12-31T09:25:57.403Z,10.60
2022-12-31T09:28:40.649Z,10.70
2022-12-31T09:31:16.162Z,10.70
2022-12-31T09:33:52.803Z,11.10
2022-12-31T09:36:30.662Z,11.30
2022-12-31T09:39:08.662Z,11.00
2022-12-31T09:42:04.237Z,10.90
2022-12-31T09:45:07.976Z,11.00
2022-12-31T09:48:08.415Z,10.60
2022-12-31T09:50:58.831Z,10.80
2022-12-31T09:53:53.082Z,10.70
2022-12-31T09:56:30.245Z,10.50
2022-12-31T09:59:04.374Z,10.50
2022-12-31T10:01:49.867Z,10.50
2022-12-31T10:04:42.682Z,10.50
2022-12-31T10:07:29.703Z,10.80
2022-12-31T10:10:08.681Z,10.60
2022-12-31T10:13:20.304Z,10.70
2022-12-31T10:16:11.062Z,11.10
2022-12-31T10:18:56.852Z,11.20
2022-12-31T10:21:37.229Z,11.10
2022-12-31T10:24:39.436Z,11.30
2022-12-31T10:27:32.582Z,11.30
2022-12-31T10:30:12.746Z,11.20
2022-12-31T10:32:45.877Z,11.30
2022-12-31T10:35:24.205Z,11.40
2022-12-31T10:37:59.126Z,11.30
2022-12-31T10:40:44.147Z,11.30
2022-12-31T10:43:48.983Z,11.20
2022-12-31T10:46:59.302Z,11.30
2022-12-31T10:49:57.434Z,11.30
2022-12-31T10:53:00.916Z,11.30
2022-12-31T10:56:01.985Z,11.40
2022-12-31T10:59:01.476Z,11.40
2022-12-31T11:01:42.070Z,11.30
2022-12-31T11:04:48.824Z,11.60
2022-12-31T11:07:54.764Z,11.40
2022-12-31T11:10:53.572Z,11.60
2022-12-31T11:13:46.774Z,11.50
2022-12-31T11:16:29.443Z,11.60
2022-12-31T11:19:03.245Z,11.60
2022-12-31T11:21:48.823Z,11.60
2022-12-31T11:24:29.754Z,11.70
2022-12-31T11:27:11.902Z,11.40
2022-12-31T11:29:57.059Z,11.40
2022-12-31T11:32:44.667Z,11.50
2022-12-31T11:35:37.292Z,11.30
2022-12-31T11:38:16.769Z,11.20
2022-12-31T11:40:57.937Z,11.30
2022-12-31T11:43:35.792Z,12.10
2022-12-31T11:46:30.524Z,12.50
2022-12-31T11:49:12.404Z,12.50
2022-12-31T11:52:08.066Z,12.60
2022-12-31T11:55:14.183Z,12.40
2022-12-31T11:57:46.211Z,12.40
2022-12-31T12:00:20.593Z,12.10
2022-12-31T12:02:51.568Z,12.00
2022-12-31T12:05:22.759Z,12.10
2022-12-31T12:07:52.733Z,12.00
2022-12-31T12:10:33.576Z,12.00
2022-12-31T12:13:14.493Z,12.10
2022-12-31T12:15:48.420Z,12.10
2022-12-31T12:18:27.438Z,12.40
2022-12-31T12:21:04.943Z,12.40
2022-12-31T12:23:33.571Z,12.60
2022-12-31T12:26:02.283Z,12.60
2022-12-31T12:28:44.290Z,12.60
2022-12-31T12:31:21.945Z,12.70
2022-12-31T12:33:51.944Z,12.50
2022-12-31T12:36:22.397Z,12.50
2022-12-31T12:39:02.429Z,12.50
2022-12-31T12:41:31.135Z,12.40
2022-12-31T12:44:07.492Z,12.40
2022-12-31T12:46:48.303Z,12.60
2022-12-31T12:49:25.441Z,12.50
2022-12-31T12:52:30.841Z,12.20
2022-12-31T12:55:11.946Z,12.20
2022-12-31T12:57:47.755Z,12.20
2022-12-31T13:00:21.643Z,12.30
2022-12-31T13:03:22.683Z,12.20
2022-12-31T13:06:06.741Z,12.10
2022-12-31T13:08:53.882Z,12.40
2022-12-31T13:11:37.063Z,12.40
2022-12-31T13:14:16.345Z,12.40
2022-12-31T13:16:51.611Z,12.40
2022-12-31T13:19:31.802Z,12.40
2022-12-31T13:22:06.438Z,12.30
2022-12-31T13:24:47.049Z,12.40
2022-12-31T13:27:20.427Z,12.20
2022-12-31T13:29:50.383Z,12.20
2022-12-31T13:32:23.425Z,12.10
2022-12-31T13:34:59.252Z,12.20
2022-12-31T13:37:33.411Z,12.00
2022-12-31T13:40:06.411Z,12.10
2022-12-31T13:42:43.844Z,12.00
2022-12-31T13:45:17.981Z,12.00
2022-12-31T13:47:49.766Z,12.10
2022-12-31T13:50:26.467Z,12.10
2022-12-31T13:52:59.727Z,12.00
2022-12-31T13:55:33.574Z,11.90
2022-12-31T13:58:12.156Z,11.80
2022-12-31T14:00:46.051Z,11.90
2022-12-31T14:03:23.450Z,11.80
2022-12-31T14:05:58.983Z,12.00
2022-12-31T14:08:27.811Z,12.10
2022-12-31T14:11:06.833Z,12.20
2022-12-31T14:13:51.199Z,12.10
2022-12-31T14:16:27.455Z,12.40
2022-12-31T14:19:03.880Z,12.60
2022-12-31T14:21:42.964Z,12.70
2022-12-31T14:24:15.394Z,12.90
2022-12-31T14:26:47.679Z,13.00
2022-12-31T14:29:25.882Z,13.00
2022-12-31T14:32:26.392Z,13.10
2022-12-31T14:35:02.591Z,12.70
2022-12-31T14:37:41.019Z,12.80
2022-12-31T14:40:21.730Z,12.90
2022-12-31T14:43:01.393Z,12.90
2022-12-31T14:45:45.213Z,12.80
2022-12-31T14:48:27.006Z,12.70
2022-12-31T14:50:56.221Z,12.50
2022-12-31T14:53:27.799Z,12.20
2022-12-31T14:56:01.520Z,12.10
2022-12-31T14:58:36.157Z,12.00
2022-12-31T15:01:08.984Z,11.90
2022-12-31T15:03:45.326Z,11.80
2022-12-31T15:06:32.453Z,11.70
2022-12-31T15:09:14.729Z,11.70
2022-12-31T15:12:04.644Z,11.60
2022-12-31T15:15:00.129Z,11.50
2022-12-31T15:17:42.133Z,11.40
2022-12-31T15:20:29.915Z,11.40
2022-12-31T15:22:58.667Z,11.30
2022-12-31T15:25:35.386Z,11.20
2022-12-31T15:28:23.148Z,11.20
2022-12-31T15:30:52.338Z,11.00
2022-12-31T15:33:30.911Z,10.90
2022-12-31T15:36:11.767Z,10.90
2022-12-31T15:38:42.358Z,10.80
2022-12-31T15:41:28.678Z,10.70
2022-12-31T15:44:02.320Z,10.70
2022-12-31T15:46:34.831Z,10.60
2022-12-31T15:49:11.856Z,10.50
2022-12-31T15:51:48.356Z,10.50
2022-12-31T15:54:25.747Z,10.60
2022-12-31T15:56:56.097Z,10.50
2022-12-31T15:59:26.247Z,10.50
2022-12-31T16:01:57.442Z,10.60
2022-12-31T16:04:28.527Z,10.70
2022-12-31T16:07:01.544Z,10.40
2022-12-31T16:09:34.203Z,10.40
2022-12-31T16:12:12.229Z,10.50
2022-12-31T16:14:44.259Z,10.30
2022-12-31T16:17:31.188Z,10.30
2022-12-31T16:20:00.675Z,10.00
2022-12-31T16:22:31.115Z,10.10
2022-12-31T16:27:53.585Z,10.20
2022-12-31T16:30:23.853Z,10.20
2022-12-31T16:32:54.215Z,10.30
2022-12-31T16:35:25.749Z,10.20
2022-12-31T16:38:15.990Z,10.20
2022-12-31T16:40:47.721Z,10.30
2022-12-31T16:43:32.029Z,10.00
2022-12-31T16:46:10.309Z,10.10
2022-12-31T16:48:39.397Z,10.00
2022-12-31T16:51:08.304Z,9.80
2022-12-31T16:53:39.115Z,9.80
2022-12-31T16:56:10.289Z,9.70
2022-12-31T16:58:45.264Z,9.70
2022-12-31T17:01:19.034Z,9.70
2022-12-31T17:03:56.768Z,9.60
2022-12-31T17:06:25.799Z,9.70
2022-12-31T17:09:08.310Z,9.70
2022-12-31T17:11:39.440Z,9.60
2022-12-31T17:14:17.037Z,9.70
2022-12-31T17:17:03.648Z,9.60
2022-12-31T17:19:45.005Z,9.80
2022-12-31T17:22:22.824Z,9.50
2022-12-31T17:25:00.945Z,9.60
2022-12-31T17:27:29.799Z,9.50
2022-12-31T17:30:21.700Z,9.40
2022-12-31T17:32:51.880Z,9.50
2022-12-31T17:35:31.015Z,9.70
2022-12-31T17:38:35.587Z,9.30
2022-12-31T17:41:15.296Z,9.20
2022-12-31T17:43:44.045Z,9.40
2022-12-31T17:46:16.188Z,9.50
2022-12-31T17:48:46.234Z,9.60
2022-12-31T17:51:14.791Z,9.60
2022-12-31T17:53:43.710Z,9.30
2022-12-31T17:56:18.603Z,9.30
2022-12-31T17:58:50.684Z,9.40
2022-12-31T18:01:23.003Z,9.50
2022-12-31T18:03:51.704Z,9.70
2022-12-31T18:06:20.458Z,9.70
2022-12-31T18:08:49.102Z,9.60
2022-12-31T18:11:19.719Z,9.70
2022-12-31T18:13:48.507Z,9.40
2022-12-31T18:16:17.232Z,9.50
2022-12-31T18:18:47.219Z,9.50
2022-12-31T18:21:21.240Z,9.60
2022-12-31T18:23:50.314Z,9.60
2022-12-31T18:26:20.754Z,9.50
2022-12-31T18:28:49.945Z,9.40
2022-12-31T18:31:20.887Z,9.30
2022-12-31T18:33:52.337Z,9.40
2022-12-31T18:36:22.323Z,9.30
2022-12-31T18:38:51.147Z,9.20
2022-12-31T18:41:22.184Z,9.30
2022-12-31T18:43:51.277Z,9.40
2022-12-31T18:46:21.364Z,9.40
2022-12-31T18:48:51.445Z,9.40
2022-12-31T18:51:26.486Z,9.30
2022-12-31T18:53:59.944Z,9.50
2022-12-31T18:56:28.922Z,9.40
2022-12-31T18:58:57.455Z,9.50
2022-12-31T19:01:28.582Z,9.50
2022-12-31T19:04:01.392Z,9.40
2022-12-31T19:06:31.949Z,9.60
2022-12-31T19:09:01.223Z,9.50
2022-12-31T19:11:30.034Z,9.70
2022-12-31T19:13:58.537Z,9.50
2022-12-31T19:16:27.131Z,9.60
2022-12-31T19:18:56.019Z,9.20
2022-12-31T19:21:25.951Z,9.30
2022-12-31T19:23:55.806Z,9.50
2022-12-31T19:26:24.436Z,9.50
2022-12-31T19:28:52.957Z,9.60
2022-12-31T19:31:21.603Z,9.70
2022-12-31T19:33:50.257Z,9.60
2022-12-31T19:36:20.481Z,9.50
2022-12-31T19:38:50.550Z,9.50
2022-12-31T19:41:21.016Z,9.70
2022-12-31T19:43:50.717Z,9.70
2022-12-31T19:46:20.681Z,9.70
2022-12-31T19:48:49.906Z,9.90
2022-12-31T19:51:20.371Z,9.80
2022-12-31T19:53:50.985Z,9.60
2022-12-31T19:56:21.355Z,9.80
2022-12-31T19:58:52.323Z,9.60
2022-12-31T20:01:25.020Z,9.60
2022-12-31T20:03:57.364Z,9.40
2022-12-31T20:06:26.587Z,9.50
2022-12-31T20:08:56.473Z,9.40
2022-12-31T20:11:25.789Z,9.50
2022-12-31T20:13:54.965Z,9.40
2022-12-31T20:16:27.080Z,9.40
2022-12-31T20:18:55.668Z,9.50
2022-12-31T20:21:26.745Z,9.40
2022-12-31T20:23:57.416Z,9.40
2022-12-31T20:26:27.522Z,9.50
2022-12-31T20:28:56.065Z,9.30
2022-12-31T20:31:26.405Z,9.60
2022-12-31T20:33:55.394Z,9.60
2022-12-31T20:36:24.608Z,9.60
2022-12-31T20:38:53.154Z,9.60
2022-12-31T20:41:24.983Z,9.60
2022-12-31T20:43:53.494Z,9.60
2022-12-31T20:46:25.635Z,9.50
2022-12-31T20:48:55.535Z,9.40
2022-12-31T20:51:25.535Z,9.60
2022-12-31T20:53:56.364Z,9.60
2022-12-31T20:56:29.754Z,9.60
2022-12-31T20:58:58.388Z,9.60
2022-12-31T21:01:36.416Z,9.60
2022-12-31T21:04:16.175Z,9.60
2022-12-31T21:06:44.983Z,9.60
2022-12-31T21:09:14.087Z,9.90
2022-12-31T21:12:01.681Z,9.90
2022-12-31T21:14:30.291Z,9.70
2022-12-31T21:16:58.866Z,9.90
2022-12-31T21:19:27.326Z,9.90
2022-12-31T21:21:55.868Z,9.80
2022-12-31T21:24:24.505Z,9.80
2022-12-31T21:26:56.447Z,9.80
2022-12-31T21:29:26.245Z,9.90
2022-12-31T21:31:57.387Z,9.80
2022-12-31T21:34:25.916Z,10.00
2022-12-31T21:36:54.453Z,11.40
2022-12-31T21:39:22.976Z,10.20
2022-12-31T21:41:54.070Z,10.00
2022-12-31T21:44:25.865Z,10.10
2022-12-31T21:49:45.831Z,10.00
2022-12-31T21:52:30.782Z,10.10
2022-12-31T21:55:19.439Z,9.60
2022-12-31T22:00:57.057Z,9.80
2022-12-31T22:03:27.640Z,9.80
2022-12-31T22:05:59.130Z,9.80
2022-12-31T22:08:28.917Z,9.80
2022-12-31T22:10:57.434Z,9.90
2022-12-31T22:13:26.015Z,9.90
2022-12-31T22:16:03.828Z,10.00
2022-12-31T22:18:34.546Z,9.90
2022-12-31T22:21:04.446Z,10.10
2022-12-31T22:23:34.478Z,10.20
2022-12-31T22:26:03.872Z,10.10
2022-12-31T22:28:40.403Z,10.10
2022-12-31T22:31:13.831Z,10.00
2022-12-31T22:33:42.728Z,10.10
2022-12-31T22:36:14.212Z,10.10
2022-12-31T22:38:42.941Z,9.90
2022-12-31T22:41:13.682Z,10.10
2022-12-31T22:43:43.546Z,10.10
2022-12-31T22:46:15.651Z,10.00
2022-12-31T22:48:44.219Z,9.90
2022-12-31T22:51:13.541Z,10.00
2022-12-31T22:53:43.620Z,10.10
2022-12-31T22:56:14.177Z,10.00
2022-12-31T22:58:42.947Z,10.10
2022-12-31T23:01:18.984Z,9.90
2022-12-31T23:03:47.995Z,10.20
2022-12-31T23:06:17.156Z,9.90
2022-12-31T23:09:05.978Z,10.00
2022-12-31T23:11:34.856Z,10.00
2022-12-31T23:14:21.263Z,10.10
2022-12-31T23:17:30.459Z,10.10
2022-12-31T23:20:15.459Z,10.20
2022-12-31T23:23:01.122Z,10.40
2022-12-31T23:25:32.000Z,10.30
2022-12-31T23:28:00.621Z,10.10
2022-12-31T23:30:29.171Z,10.20
2022-12-31T23:32:59.086Z,10.20
2022-12-31T23:35:28.452Z,10.30
2022-12-31T23:37:57.008Z,10.30
2022-12-31T23:40:34.319Z,10.10
2022-12-31T23:43:04.469Z,10.10
2022-12-31T23:45:33.821Z,10.10
2022-12-31T23:48:04.283Z,10.10
2022-12-31T23:50:33.061Z,10.10
2022-12-31T23:53:01.551Z,9.90
2022-12-31T23:55:30.097Z,10.10
2022-12-31T23:57:58.639Z,9.90
